Time;durP1;ratioP1;P1;durP2;ratioP2;P2;SDS_P1;SDS_P2;PMS_P1;PMS_P2;Temp;Humidity;BMP_temperature;BMP_pressure;BME280_temperature;BME280_humidity;BME280_pressure;Samples;Min_cycle;Max_cycle;Signal;HPM_P1;HPM_P2
2021/03/31 00:00:33;;;;;;;2.67;1.65;;;17.80;69.20;;;;;;5066213;28;20035;-60
2021/03/31 00:03:03;;;;;;;2.40;1.60;;;17.80;69.30;;;;;;5067020;28;20021;-61
2021/03/31 00:05:29;;;;;;;2.00;1.73;;;17.90;69.10;;;;;;5065946;28;20063;-60
2021/03/31 00:07:55;;;;;;;2.00;1.50;;;17.80;69.40;;;;;;5066293;28;20056;-60
2021/03/31 00:10:30;;;;;;;2.33;1.52;;;17.70;69.80;;;;;;5066085;28;20033;-61
2021/03/31 00:12:56;;;;;;;1.60;1.27;;;18.00;69.70;;;;;;5066346;28;20017;-61
2021/03/31 00:15:23;;;;;;;1.88;1.55;;;18.20;68.90;;;;;;5065884;28;20417;-60
2021/03/31 00:17:49;;;;;;;3.08;1.60;;;18.30;68.40;;;;;;5066269;28;20633;-60
2021/03/31 00:20:16;;;;;;;2.60;1.50;;;18.40;68.30;;;;;;5066090;28;20036;-61
2021/03/31 00:22:43;;;;;;;2.33;1.75;;;18.50;69.20;;;;;;5066081;28;20463;-60
2021/03/31 00:25:10;;;;;;;4.43;1.48;;;18.30;69.20;;;;;;5066352;28;20055;-60
2021/03/31 00:27:36;;;;;;;3.05;1.50;;;18.20;69.60;;;;;;5065732;28;20094;-60
2021/03/31 00:30:04;;;;;;;2.38;1.65;;;18.30;70.00;;;;;;5066315;28;20032;-60
2021/03/31 00:32:31;;;;;;;1.50;1.30;;;18.20;69.30;;;;;;5066135;28;20016;-60
2021/03/31 00:34:57;;;;;;;1.52;1.25;;;18.00;69.40;;;;;;5066092;28;20150;-60
2021/03/31 00:37:23;;;;;;;1.40;1.30;;;18.20;69.10;;;;;;5065715;28;20128;-60
2021/03/31 00:39:49;;;;;;;5.00;1.60;;;18.10;69.40;;;;;;5065610;28;20487;-60
2021/03/31 00:42:15;;;;;;;4.43;1.77;;;18.10;69.60;;;;;;5065737;28;20024;-60
2021/03/31 00:44:41;;;;;;;2.00;1.30;;;17.80;69.40;;;;;;5065402;28;20032;-60
2021/03/31 00:47:07;;;;;;;1.70;1.23;;;17.90;69.80;;;;;;5065506;28;20112;-60
2021/03/31 00:49:33;;;;;;;2.17;1.38;;;18.00;69.90;;;;;;5065128;28;20033;-60
2021/03/31 00:51:59;;;;;;;1.98;1.38;;;17.90;70.00;;;;;;5065237;28;20032;-60
2021/03/31 00:54:26;;;;;;;3.13;1.48;;;17.90;69.90;;;;;;5064935;28;20028;-60
2021/03/31 00:56:53;;;;;;;2.08;1.45;;;18.00;70.00;;;;;;5063905;28;20025;-60
2021/03/31 00:59:19;;;;;;;3.42;1.63;;;18.20;69.90;;;;;;5065165;28;20269;-60
2021/03/31 01:01:44;;;;;;;2.50;1.60;;;18.10;70.00;;;;;;5065389;28;20028;-60
2021/03/31 01:04:10;;;;;;;2.38;1.50;;;17.90;70.10;;;;;;5065127;28;20091;-60
2021/03/31 01:06:36;;;;;;;2.05;1.52;;;17.80;70.20;;;;;;5064460;28;20514;-60
2021/03/31 01:09:05;;;;;;;2.08;1.40;;;17.80;70.20;;;;;;5064851;28;20032;-60
2021/03/31 01:12:00;;;;;;;2.72;1.58;;;17.70;70.10;;;;;;5065218;28;20465;-60
2021/03/31 01:14:48;;;;;;;4.47;1.50;;;17.60;69.40;;;;;;5064747;28;20445;-60
2021/03/31 01:17:28;;;;;;;3.58;1.33;;;17.50;69.40;;;;;;5065206;28;20160;-60
2021/03/31 01:20:14;;;;;;;1.88;1.65;;;17.50;69.10;;;;;;5064945;28;20363;-60
2021/03/31 01:23:17;;;;;;;1.95;1.48;;;17.50;68.90;;;;;;5064551;28;20023;-60
2021/03/31 01:26:06;;;;;;;2.13;1.50;;;17.50;68.90;;;;;;5064677;28;20093;-60
2021/03/31 01:28:54;;;;;;;1.33;1.23;;;17.50;68.70;;;;;;5065257;28;20036;-60
2021/03/31 01:31:30;;;;;;;1.33;1.10;;;17.60;68.80;;;;;;5064392;28;20016;-60
2021/03/31 01:34:34;;;;;;;1.92;1.38;;;17.70;69.30;;;;;;5064495;28;20024;-60
2021/03/31 01:37:01;;;;;;;3.47;1.50;;;17.60;70.50;;;;;;5065316;28;20094;-60
2021/03/31 01:39:29;;;;;;;2.70;1.40;;;17.60;70.80;;;;;;5064816;28;20171;-60
2021/03/31 01:41:58;;;;;;;2.70;1.83;;;17.60;71.00;;;;;;5064734;28;20052;-60
2021/03/31 01:44:26;;;;;;;4.22;1.83;;;17.50;71.30;;;;;;5064284;28;20302;-60
2021/03/31 01:46:55;;;;;;;2.22;1.55;;;17.40;71.30;;;;;;5064527;28;20031;-60
2021/03/31 01:49:24;;;;;;;2.70;1.70;;;17.30;71.80;;;;;;5064143;28;20032;-60
2021/03/31 01:51:58;;;;;;;3.75;1.58;;;17.30;72.30;;;;;;5064566;28;20028;-60
2021/03/31 01:54:27;;;;;;;2.40;1.85;;;17.10;72.70;;;;;;5064072;28;20040;-60
2021/03/31 01:56:55;;;;;;;3.08;1.70;;;17.10;72.70;;;;;;5064522;28;20029;-60
2021/03/31 01:59:22;;;;;;;2.17;1.77;;;17.10;72.80;;;;;;5056252;28;20106;-59
2021/03/31 02:01:54;;;;;;;3.90;1.80;;;17.00;73.00;;;;;;5044766;28;20033;-60
2021/03/31 02:04:22;;;;;;;2.50;1.60;;;16.90;73.40;;;;;;5043136;28;20090;-60
2021/03/31 02:06:50;;;;;;;2.30;1.60;;;17.00;73.70;;;;;;5043033;28;20040;-60
2021/03/31 02:09:18;;;;;;;2.28;1.75;;;16.80;73.60;;;;;;5043939;28;20033;-60
2021/03/31 02:11:46;;;;;;;3.40;1.65;;;16.70;73.70;;;;;;5044474;28;20033;-60
2021/03/31 02:14:17;;;;;;;4.53;1.40;;;16.80;73.20;;;;;;5043790;28;20114;-60
2021/03/31 02:16:44;;;;;;;1.60;1.38;;;16.90;73.40;;;;;;5043236;28;20551;-60
2021/03/31 02:19:16;;;;;;;2.35;1.48;;;16.70;73.30;;;;;;5044068;28;20411;-60
2021/03/31 02:21:43;;;;;;;3.40;1.83;;;16.60;73.50;;;;;;5043863;28;20017;-60
2021/03/31 02:24:13;;;;;;;2.83;1.70;;;16.70;73.50;;;;;;5044045;28;20025;-60
2021/03/31 02:26:39;;;;;;;3.92;1.77;;;16.70;73.40;;;;;;5043509;28;20036;-60
2021/03/31 02:29:04;;;;;;;3.97;1.63;;;16.70;73.60;;;;;;5044139;28;20022;-60
2021/03/31 02:31:32;;;;;;;3.83;1.70;;;16.70;72.90;;;;;;5044512;28;20373;-59
2021/03/31 02:34:00;;;;;;;2.88;2.20;;;16.80;72.30;;;;;;5044621;28;20099;-60
2021/03/31 02:36:28;;;;;;;2.60;1.77;;;16.40;73.60;;;;;;5041703;28;20025;-60
2021/03/31 02:38:54;;;;;;;4.45;1.73;;;16.40;73.70;;;;;;5043935;28;20384;-60
2021/03/31 02:41:21;;;;;;;2.22;1.77;;;16.50;73.40;;;;;;5043757;28;20028;-60
2021/03/31 02:43:48;;;;;;;4.95;1.85;;;16.50;73.60;;;;;;5044171;28;20036;-60
2021/03/31 02:46:18;;;;;;;3.08;1.85;;;16.50;73.40;;;;;;5043966;28;20032;-60
2021/03/31 02:48:47;;;;;;;3.08;1.90;;;16.40;74.50;;;;;;5043823;28;20040;-60
2021/03/31 02:51:18;;;;;;;2.30;1.83;;;16.30;74.40;;;;;;5043671;28;20037;-60
2021/03/31 02:53:44;;;;;;;3.50;1.60;;;16.00;74.50;;;;;;5043749;28;20024;-60
2021/03/31 02:56:12;;;;;;;2.42;1.40;;;16.10;74.10;;;;;;5044019;28;20391;-60
2021/03/31 02:58:40;;;;;;;3.10;1.70;;;16.00;74.50;;;;;;5043643;28;20029;-59
2021/03/31 03:01:07;;;;;;;2.05;1.40;;;16.10;75.00;;;;;;5043765;28;20025;-60
2021/03/31 03:03:34;;;;;;;2.55;1.52;;;16.10;74.50;;;;;;5043520;28;20064;-60
2021/03/31 03:06:04;;;;;;;3.78;1.70;;;16.30;74.60;;;;;;5043837;28;20049;-60
2021/03/31 03:08:30;;;;;;;2.70;1.70;;;16.20;74.90;;;;;;5044013;28;20473;-60
2021/03/31 03:11:00;;;;;;;2.25;1.40;;;16.40;74.60;;;;;;5043817;28;20047;-60
2021/03/31 03:13:27;;;;;;;3.88;1.60;;;16.50;74.50;;;;;;5043677;28;20112;-60
2021/03/31 03:15:55;;;;;;;2.00;1.80;;;16.30;73.80;;;;;;5045523;28;20029;-60
2021/03/31 03:18:22;;;;;;;2.47;1.23;;;16.40;74.30;;;;;;5046835;28;20044;-60
2021/03/31 03:20:49;;;;;;;3.17;1.65;;;16.50;73.70;;;;;;5047276;28;20035;-59
2021/03/31 03:23:16;;;;;;;3.17;2.20;;;16.50;74.00;;;;;;5047404;28;20112;-59
2021/03/31 03:25:46;;;;;;;3.40;1.98;;;16.30;75.00;;;;;;5046748;28;20499;-60
2021/03/31 03:28:17;;;;;;;2.75;1.65;;;16.10;75.70;;;;;;5047173;28;20032;-60
2021/03/31 03:30:44;;;;;;;2.58;1.70;;;16.10;75.80;;;;;;5046775;28;20036;-59
2021/03/31 03:33:10;;;;;;;2.17;1.75;;;16.00;75.70;;;;;;5046736;28;20021;-59
2021/03/31 03:35:35;;;;;;;2.83;1.83;;;16.00;75.80;;;;;;5046664;28;20028;-60
2021/03/31 03:38:01;;;;;;;3.38;1.80;;;15.90;75.80;;;;;;5047638;28;20526;-59
2021/03/31 03:40:30;;;;;;;4.32;1.83;;;16.00;76.10;;;;;;5046729;28;20028;-59
2021/03/31 03:42:56;;;;;;;4.38;1.80;;;15.90;76.20;;;;;;5047021;28;20029;-60
2021/03/31 03:45:24;;;;;;;2.67;1.58;;;15.70;75.90;;;;;;5046501;28;20032;-59
2021/03/31 03:47:50;;;;;;;3.78;1.65;;;15.70;75.80;;;;;;5045593;28;20036;-59
2021/03/31 03:50:17;;;;;;;3.97;1.77;;;15.70;75.70;;;;;;5046953;28;20028;-59
2021/03/31 03:52:44;;;;;;;3.28;1.90;;;15.70;76.00;;;;;;5046539;28;20495;-59
2021/03/31 03:55:14;;;;;;;2.13;1.50;;;15.50;76.30;;;;;;5046654;28;20017;-60
2021/03/31 03:57:39;;;;;;;3.45;1.65;;;15.60;76.20;;;;;;5056825;28;20031;-59
2021/03/31 04:00:17;;;;;;;3.85;1.70;;;15.60;77.10;;;;;;5066975;28;20024;-59
2021/03/31 04:02:43;;;;;;;2.70;1.70;;;15.50;76.90;;;;;;5065542;28;20489;-59
2021/03/31 04:05:10;;;;;;;2.90;1.70;;;15.40;77.20;;;;;;5066250;28;20143;-59
2021/03/31 04:07:36;;;;;;;6.18;2.15;;;15.30;78.10;;;;;;5065852;28;20124;-60
2021/03/31 04:10:04;;;;;;;2.75;1.80;;;15.20;78.40;;;;;;5066232;28;20107;-60
2021/03/31 04:12:30;;;;;;;5.35;2.08;;;15.30;78.50;;;;;;5065428;28;20460;-60
2021/03/31 04:14:57;;;;;;;4.05;1.80;;;15.40;78.20;;;;;;5065448;28;20017;-59
2021/03/31 04:17:23;;;;;;;3.33;1.73;;;15.40;78.50;;;;;;5065992;28;20056;-59
2021/03/31 04:19:50;;;;;;;3.38;1.88;;;15.20;78.60;;;;;;5066229;28;20067;-59
2021/03/31 04:22:17;;;;;;;2.22;1.55;;;15.20;79.00;;;;;;5066350;28;20036;-59
2021/03/31 04:24:43;;;;;;;2.42;1.65;;;15.30;79.40;;;;;;5066355;28;20039;-59
2021/03/31 04:27:10;;;;;;;3.75;1.95;;;15.20;79.50;;;;;;5065832;28;20033;-59
2021/03/31 04:29:40;;;;;;;3.72;2.05;;;15.10;79.40;;;;;;5065771;28;20113;-59
2021/03/31 04:32:12;;;;;;;2.65;2.05;;;15.10;79.60;;;;;;5065473;28;20029;-59
2021/03/31 04:34:39;;;;;;;3.33;1.90;;;15.00;79.90;;;;;;5064501;28;20055;-59
2021/03/31 04:37:06;;;;;;;3.00;1.90;;;15.10;80.00;;;;;;5065905;28;20093;-59
2021/03/31 04:39:32;;;;;;;4.57;2.10;;;15.10;80.10;;;;;;5065727;28;20077;-59
2021/03/31 04:41:58;;;;;;;3.67;2.13;;;15.10;80.30;;;;;;5065689;28;20715;-59
2021/03/31 04:44:25;;;;;;;4.03;2.08;;;15.10;80.20;;;;;;5065566;28;20159;-59
2021/03/31 04:46:50;;;;;;;3.72;2.33;;;15.10;80.30;;;;;;5065381;28;20055;-59
2021/03/31 04:49:17;;;;;;;4.40;2.03;;;15.00;81.10;;;;;;5066284;28;20040;-59
2021/03/31 04:51:42;;;;;;;3.13;1.98;;;15.00;81.10;;;;;;5066275;28;20024;-59
2021/03/31 04:54:09;;;;;;;4.78;1.83;;;14.90;81.10;;;;;;5065432;28;20406;-59
2021/03/31 04:56:35;;;;;;;3.58;2.13;;;14.80;81.70;;;;;;5065094;28;20032;-59
2021/03/31 04:59:01;;;;;;;3.45;2.03;;;14.70;81.40;;;;;;5063973;28;20016;-59
2021/03/31 05:01:28;;;;;;;3.47;2.10;;;14.50;82.00;;;;;;5064930;28;20415;-59
2021/03/31 05:03:54;;;;;;;3.75;2.08;;;14.60;82.30;;;;;;5065261;28;20024;-59
2021/03/31 05:06:21;;;;;;;3.47;1.80;;;14.60;82.00;;;;;;5064656;28;20623;-59
2021/03/31 05:08:48;;;;;;;4.75;2.40;;;14.60;82.00;;;;;;5064833;28;20086;-59
2021/03/31 05:11:14;;;;;;;3.80;2.30;;;14.60;81.70;;;;;;5065599;28;20029;-59
2021/03/31 05:13:40;;;;;;;3.58;2.08;;;14.70;81.80;;;;;;5064089;28;20092;-59
2021/03/31 05:16:06;;;;;;;3.42;2.00;;;14.70;81.70;;;;;;5064740;28;20103;-59
2021/03/31 05:18:32;;;;;;;2.97;1.95;;;14.50;82.20;;;;;;5064954;28;20103;-59
2021/03/31 05:20:58;;;;;;;3.92;2.35;;;14.60;82.30;;;;;;5064898;28;20036;-57
2021/03/31 05:23:24;;;;;;;4.15;1.90;;;14.40;82.20;;;;;;5065036;28;20111;-58
2021/03/31 05:25:49;;;;;;;6.28;2.38;;;14.10;83.40;;;;;;5064549;28;20101;-57
2021/03/31 05:28:16;;;;;;;4.03;2.50;;;14.10;84.30;;;;;;5065297;28;20508;-57
2021/03/31 05:30:43;;;;;;;5.32;2.40;;;14.20;84.20;;;;;;5064871;28;20115;-57
2021/03/31 05:33:08;;;;;;;3.53;2.42;;;14.30;84.20;;;;;;5064713;28;20032;-57
2021/03/31 05:35:35;;;;;;;3.63;2.35;;;14.30;83.70;;;;;;5064181;28;20036;-57
2021/03/31 05:38:00;;;;;;;4.63;2.45;;;14.20;84.40;;;;;;5064194;28;20017;-59
2021/03/31 05:40:27;;;;;;;4.30;2.30;;;14.20;84.60;;;;;;5064227;28;20059;-59
2021/03/31 05:42:56;;;;;;;4.90;2.50;;;14.20;84.30;;;;;;5064649;28;20024;-59
2021/03/31 05:45:22;;;;;;;4.00;2.10;;;14.20;84.50;;;;;;5064130;28;20042;-59
2021/03/31 05:47:49;;;;;;;3.25;2.25;;;14.20;84.80;;;;;;5064459;28;20039;-59
2021/03/31 05:50:16;;;;;;;3.83;2.05;;;14.10;84.90;;;;;;5065143;28;20031;-59
2021/03/31 05:52:44;;;;;;;3.80;2.20;;;14.20;85.00;;;;;;5062923;28;20354;-59
2021/03/31 05:55:14;;;;;;;4.35;2.03;;;14.20;85.00;;;;;;5056719;28;20036;-59
2021/03/31 05:57:41;;;;;;;4.97;2.53;;;14.20;85.30;;;;;;5045153;28;20098;-60
2021/03/31 06:00:12;;;;;;;4.57;2.17;;;14.10;84.50;;;;;;5046169;28;20103;-59
2021/03/31 06:02:40;;;;;;;3.83;2.15;;;14.00;85.60;;;;;;5045137;28;20036;-59
2021/03/31 06:05:07;;;;;;;4.13;2.42;;;14.00;85.10;;;;;;5045626;28;20083;-59
2021/03/31 06:07:33;;;;;;;3.10;1.70;;;14.10;86.10;;;;;;5045710;28;20059;-59
2021/03/31 06:10:19;;;;;;;2.58;1.73;;;14.20;85.60;;;;;;5046184;28;20068;-59
2021/03/31 06:13:01;;;;;;;5.78;2.45;;;14.30;85.50;;;;;;5045287;28;20036;-59
2021/03/31 06:15:40;;;;;;;3.38;1.95;;;14.20;85.50;;;;;;5045324;28;20437;-59
2021/03/31 06:18:15;;;;;;;4.95;2.63;;;14.30;85.90;;;;;;5046169;28;20021;-59
2021/03/31 06:21:05;;;;;;;2.90;1.85;;;14.30;85.80;;;;;;5045605;28;20126;-59
2021/03/31 06:26:42;;;;;;;4.05;1.92;;;14.40;84.40;;;;;;5062437;28;20482;-59
2021/03/31 06:29:09;;;;;;;2.95;1.80;;;14.50;84.30;;;;;;5062705;28;20064;-59
2021/03/31 06:31:39;;;;;;;2.65;1.98;;;14.40;84.20;;;;;;5050269;28;20033;-59
2021/03/31 06:34:07;;;;;;;2.90;1.98;;;14.40;84.90;;;;;;5044997;28;20029;-59
2021/03/31 06:36:39;;;;;;;3.25;2.00;;;14.40;84.80;;;;;;5061376;28;20210;-59
2021/03/31 06:39:28;;;;;;;3.53;1.75;;;14.50;84.70;;;;;;5045396;28;20053;-59
2021/03/31 06:42:11;;;;;;;3.60;1.92;;;14.50;85.60;;;;;;5045340;28;20032;-59
2021/03/31 06:45:05;;;;;;;2.97;2.22;;;14.50;85.50;;;;;;5064690;28;20095;-59
2021/03/31 06:50:16;;;;;;;4.38;2.40;;;14.70;85.10;;;;;;5069398;28;20036;-59
2021/03/31 06:52:52;;;;;;;3.72;2.25;;;14.60;85.20;;;;;;5068288;28;20491;-59
2021/03/31 06:55:18;;;;;;;4.57;2.20;;;14.50;85.80;;;;;;5068159;28;20024;-60
2021/03/31 06:57:51;;;;;;;2.90;1.85;;;14.80;85.30;;;;;;5068078;28;20481;-59
2021/03/31 07:00:24;;;;;;;2.75;1.85;;;15.00;84.70;;;;;;5068202;28;20025;-59
2021/03/31 07:02:50;;;;;;;3.33;1.90;;;15.10;84.30;;;;;;5067653;28;20029;-59
2021/03/31 07:05:16;;;;;;;2.97;1.98;;;15.30;85.80;;;;;;5069486;28;20186;-59
2021/03/31 07:07:42;;;;;;;3.58;1.90;;;15.40;85.90;;;;;;5068438;28;20126;-59
2021/03/31 07:10:14;;;;;;;1.70;1.40;;;15.60;85.20;;;;;;5067503;28;20039;-59
2021/03/31 07:12:47;;;;;;;2.45;1.70;;;15.80;85.00;;;;;;5067836;28;20498;-59
2021/03/31 07:15:16;;;;;;;2.42;1.20;;;15.90;86.20;;;;;;5069277;28;20418;-59
2021/03/31 07:17:46;;;;;;;1.95;1.67;;;16.00;84.40;;;;;;5059386;28;20028;-60
2021/03/31 07:20:12;;;;;;;1.45;1.10;;;16.00;84.20;;;;;;5053080;28;20025;-59
2021/03/31 07:22:39;;;;;;;0.73;0.70;;;16.10;85.40;;;;;;5047922;28;20593;-59
2021/03/31 07:25:07;;;;;;;2.05;1.10;;;16.20;87.60;;;;;;5048171;28;20106;-59
2021/03/31 07:27:34;;;;;;;0.80;0.80;;;16.30;85.90;;;;;;5058252;28;20041;-59
2021/03/31 07:30:10;;;;;;;1.65;1.10;;;16.40;83.90;;;;;;5056314;28;20029;-59
2021/03/31 07:32:48;;;;;;;1.50;1.10;;;16.10;84.00;;;;;;5066327;28;20081;-59
2021/03/31 07:35:14;;;;;;;1.77;1.50;;;16.10;83.50;;;;;;5051003;28;20067;-59
2021/03/31 07:37:41;;;;;;;2.88;1.42;;;16.00;85.60;;;;;;5057380;28;20050;-59
2021/03/31 07:40:11;;;;;;;1.05;0.95;;;16.40;84.80;;;;;;5052628;28;20029;-59
2021/03/31 07:42:41;;;;;;;1.42;1.13;;;16.60;85.20;;;;;;5047754;28;20040;-59
2021/03/31 07:45:10;;;;;;;2.40;1.35;;;16.40;83.60;;;;;;5058325;28;20139;-60
2021/03/31 07:47:38;;;;;;;1.60;1.20;;;16.50;85.80;;;;;;5047353;28;20415;-60
2021/03/31 07:50:04;;;;;;;1.63;1.30;;;16.60;85.40;;;;;;5048007;28;20048;-60
2021/03/31 07:52:56;;;;;;;1.15;0.98;;;16.70;84.70;;;;;;5047937;28;20028;-60
2021/03/31 07:55:34;;;;;;;1.77;1.30;;;16.70;85.30;;;;;;5047356;28;20104;-61
2021/03/31 07:58:29;;;;;;;1.55;1.17;;;16.80;87.30;;;;;;5051471;28;20025;-60
2021/03/31 08:01:08;;;;;;;1.55;1.35;;;16.90;86.20;;;;;;5051611;28;20127;-60
2021/03/31 08:03:36;;;;;;;3.03;1.20;;;16.80;86.50;;;;;;5067557;28;20046;-60
2021/03/31 08:06:21;;;;;;;1.83;1.20;;;17.00;85.20;;;;;;5051494;28;20028;-60
2021/03/31 08:08:50;;;;;;;2.53;1.33;;;16.90;85.50;;;;;;5057300;28;20431;-60
2021/03/31 08:11:40;;;;;;;1.48;1.38;;;17.00;89.00;;;;;;5046243;28;20025;-60
2021/03/31 08:14:11;;;;;;;1.25;1.00;;;17.10;86.30;;;;;;5063921;28;20107;-60
2021/03/31 08:16:43;;;;;;;1.15;1.05;;;17.10;87.70;;;;;;5065319;28;20024;-60
2021/03/31 08:19:16;;;;;;;1.92;1.10;;;17.20;87.40;;;;;;5065585;28;20124;-60
2021/03/31 08:21:44;;;;;;;1.43;1.00;;;17.30;86.40;;;;;;5065650;28;20029;-60
2021/03/31 08:24:11;;;;;;;0.80;0.80;;;17.40;86.40;;;;;;5064788;28;20417;-61
2021/03/31 08:26:41;;;;;;;0.73;0.70;;;17.50;85.80;;;;;;5045545;28;20025;-60
2021/03/31 08:29:19;;;;;;;0.93;0.85;;;17.60;84.80;;;;;;5045259;28;20029;-60
2021/03/31 08:32:06;;;;;;;1.15;0.90;;;17.70;85.70;;;;;;5046169;28;20037;-60
2021/03/31 08:34:33;;;;;;;1.70;1.00;;;17.70;88.70;;;;;;5044864;28;20419;-60
2021/03/31 08:37:01;;;;;;;1.45;0.70;;;17.70;87.80;;;;;;5045647;28;20095;-60
2021/03/31 08:39:28;;;;;;;2.13;0.93;;;17.80;84.50;;;;;;5053272;28;20036;-60
2021/03/31 08:41:56;;;;;;;1.80;1.30;;;17.90;89.20;;;;;;5059411;28;20104;-60
2021/03/31 08:44:30;;;;;;;1.75;1.00;;;17.90;85.60;;;;;;5067119;28;20025;-60
2021/03/31 08:47:07;;;;;;;1.20;1.00;;;18.10;87.30;;;;;;5066426;28;20016;-60
2021/03/31 08:49:33;;;;;;;1.35;0.80;;;18.00;85.00;;;;;;5065353;28;20124;-60
2021/03/31 08:52:06;;;;;;;1.40;0.90;;;18.20;89.10;;;;;;5065993;28;20104;-60
2021/03/31 08:54:38;;;;;;;0.70;0.70;;;18.30;85.10;;;;;;5065155;28;20464;-60
2021/03/31 08:57:09;;;;;;;1.00;0.85;;;18.40;85.60;;;;;;5065690;28;20384;-60
2021/03/31 08:59:36;;;;;;;0.80;0.70;;;18.50;86.70;;;;;;5065099;28;20032;-60
2021/03/31 09:02:03;;;;;;;0.88;0.70;;;18.60;84.50;;;;;;5065240;28;20048;-60
2021/03/31 09:04:31;;;;;;;1.13;0.50;;;18.50;81.00;;;;;;5065476;28;20150;-60
2021/03/31 09:06:58;;;;;;;0.70;0.68;;;18.60;80.90;;;;;;5064687;28;20058;-60
2021/03/31 09:09:30;;;;;;;0.77;0.75;;;18.50;80.40;;;;;;5063488;28;20044;-60
2021/03/31 09:12:01;;;;;;;1.10;0.90;;;18.60;80.80;;;;;;5064428;28;20540;-60
2021/03/31 09:14:27;;;;;;;1.52;0.90;;;18.70;81.00;;;;;;5063298;28;20074;-60
2021/03/31 09:16:58;;;;;;;1.40;0.85;;;18.70;82.10;;;;;;5065596;28;20042;-60
2021/03/31 09:19:27;;;;;;;2.60;1.00;;;18.90;83.50;;;;;;5065120;28;20443;-60
2021/03/31 09:21:53;;;;;;;1.38;0.70;;;19.10;82.50;;;;;;5065071;28;20399;-60
2021/03/31 09:24:23;;;;;;;1.83;0.80;;;19.40;79.80;;;;;;5064875;28;20028;-60
2021/03/31 09:26:56;;;;;;;1.00;0.90;;;19.20;83.10;;;;;;5064916;28;20048;-60
2021/03/31 09:29:23;;;;;;;2.53;0.93;;;19.30;82.00;;;;;;5064464;28;20043;-60
2021/03/31 09:31:50;;;;;;;1.77;1.15;;;19.50;81.00;;;;;;5064805;28;20028;-60
2021/03/31 09:34:17;;;;;;;1.45;0.95;;;19.30;79.20;;;;;;5065397;28;20052;-60
2021/03/31 09:36:55;;;;;;;3.63;1.63;;;19.40;79.70;;;;;;5064998;28;20391;-60
2021/03/31 09:39:21;;;;;;;2.47;1.33;;;19.60;77.20;;;;;;5063246;28;20029;-60
2021/03/31 09:41:48;;;;;;;2.08;1.30;;;19.80;81.30;;;;;;5065464;28;20676;-60
2021/03/31 09:44:14;;;;;;;1.52;1.08;;;19.80;78.70;;;;;;5065158;28;20067;-60
2021/03/31 09:46:39;;;;;;;1.33;1.10;;;19.50;78.00;;;;;;5064336;28;20020;-61
2021/03/31 09:49:05;;;;;;;2.13;1.25;;;19.40;78.90;;;;;;5064561;28;20097;-60
2021/03/31 09:51:34;;;;;;;1.52;1.27;;;19.40;77.20;;;;;;5054274;28;20032;-60
2021/03/31 09:54:00;;;;;;;2.80;1.30;;;19.60;78.90;;;;;;5046520;28;20437;-60
2021/03/31 09:56:26;;;;;;;1.08;0.98;;;20.10;76.10;;;;;;5055701;28;20017;-61
2021/03/31 09:58:53;;;;;;;1.83;1.27;;;20.10;75.70;;;;;;5044770;28;20087;-60
2021/03/31 10:01:19;;;;;;;1.58;0.90;;;20.10;76.40;;;;;;5048361;28;20494;-60
2021/03/31 10:03:46;;;;;;;2.55;1.10;;;20.20;75.80;;;;;;5062730;28;20043;-61
2021/03/31 10:06:16;;;;;;;1.85;0.88;;;20.30;77.00;;;;;;5062495;28;20361;-61
2021/03/31 10:08:42;;;;;;;4.90;1.50;;;20.50;74.90;;;;;;5045339;28;20068;-61
2021/03/31 10:11:43;;;;;;;2.25;1.48;;;20.40;73.90;;;;;;5045830;28;20060;-61
2021/03/31 10:14:22;;;;;;;3.33;1.88;;;20.20;74.00;;;;;;5052726;28;20109;-61
2021/03/31 10:16:50;;;;;;;3.20;1.90;;;20.30;73.60;;;;;;5058966;28;20028;-61
2021/03/31 10:19:16;;;;;;;2.05;1.60;;;20.20;72.60;;;;;;5048797;28;20527;-61
2021/03/31 10:21:44;;;;;;;8.23;2.30;;;20.10;72.10;;;;;;5048303;28;20112;-61
2021/03/31 10:24:13;;;;;;;3.78;1.80;;;20.10;73.60;;;;;;5057672;28;20021;-61
2021/03/31 10:26:45;;;;;;;2.10;1.90;;;20.20;72.00;;;;;;5058103;28;20021;-59
2021/03/31 10:29:22;;;;;;;3.55;1.80;;;20.40;74.00;;;;;;5052309;28;20067;-59
2021/03/31 10:31:49;;;;;;;5.10;2.03;;;20.70;71.90;;;;;;5051749;28;20043;-59
2021/03/31 10:34:18;;;;;;;2.60;1.60;;;20.80;71.40;;;;;;5055020;28;20021;-59
2021/03/31 10:51:13;;;;;;;3.25;1.60;;;21.00;68.10;;;;;;5065657;28;20051;-59
2021/03/31 10:53:52;;;;;;;2.55;1.85;;;21.00;69.80;;;;;;5051520;28;20974;-59
2021/03/31 10:56:18;;;;;;;2.47;1.65;;;21.00;68.00;;;;;;5052127;28;20036;-59
2021/03/31 10:58:44;;;;;;;2.25;1.60;;;21.00;67.80;;;;;;5052137;28;20029;-59
2021/03/31 11:01:10;;;;;;;3.03;2.00;;;21.40;69.60;;;;;;5071254;28;20070;-58
2021/03/31 11:03:36;;;;;;;1.85;1.35;;;21.30;69.20;;;;;;5071910;28;20436;-59
2021/03/31 11:06:03;;;;;;;2.92;1.55;;;21.10;69.00;;;;;;5058510;28;20028;-59
2021/03/31 11:08:28;;;;;;;2.45;1.63;;;21.60;70.40;;;;;;5061707;28;20040;-58
2021/03/31 11:10:54;;;;;;;2.95;1.65;;;21.70;69.20;;;;;;5052993;28;20025;-59
2021/03/31 11:13:21;;;;;;;2.55;1.65;;;21.50;67.10;;;;;;5056301;28;20032;-59
2021/03/31 11:15:47;;;;;;;2.15;1.50;;;21.40;68.10;;;;;;5060067;28;20032;-59
2021/03/31 11:21:59;;;;;;;4.45;2.05;;;22.00;67.50;;;;;;5107913;28;20035;-60
2021/03/31 11:26:49;;;;;;;3.20;2.20;;;21.80;65.00;;;;;;5069196;28;20566;-60
2021/03/31 11:29:15;;;;;;;1.58;1.48;;;21.80;66.00;;;;;;5070626;28;20115;-60
2021/03/31 11:31:42;;;;;;;2.22;1.70;;;22.20;67.40;;;;;;5069343;28;20067;-60
2021/03/31 11:34:07;;;;;;;3.58;1.80;;;22.40;66.80;;;;;;5051622;28;20060;-60
2021/03/31 11:36:34;;;;;;;3.10;1.80;;;22.30;65.80;;;;;;5045599;28;20484;-60
2021/03/31 11:39:00;;;;;;;1.85;1.45;;;22.50;67.40;;;;;;5046075;28;20457;-63
2021/03/31 11:41:27;;;;;;;2.30;1.50;;;22.60;65.60;;;;;;5065671;28;20499;-60
2021/03/31 11:43:53;;;;;;;3.58;1.40;;;22.70;64.70;;;;;;5057079;28;20028;-61
2021/03/31 11:46:19;;;;;;;2.53;1.85;;;22.80;65.00;;;;;;5046153;28;20021;-60
2021/03/31 11:48:44;;;;;;;2.97;1.70;;;22.80;64.20;;;;;;5045541;28;20040;-62
2021/03/31 11:51:11;;;;;;;1.85;1.30;;;22.80;63.50;;;;;;5045990;28;20036;-60
2021/03/31 11:53:37;;;;;;;1.52;1.17;;;22.80;64.40;;;;;;5053091;28;20027;-60
2021/03/31 11:56:03;;;;;;;2.25;1.52;;;23.00;64.30;;;;;;5067241;28;20655;-60
2021/03/31 11:58:30;;;;;;;2.15;1.50;;;23.20;62.80;;;;;;5063732;28;20021;-60
2021/03/31 12:00:55;;;;;;;1.60;1.38;;;23.30;63.60;;;;;;5065780;28;20391;-62
2021/03/31 12:03:22;;;;;;;4.28;1.70;;;23.40;63.50;;;;;;5065303;28;20098;-63
2021/03/31 12:05:48;;;;;;;1.52;1.42;;;23.50;61.70;;;;;;5065145;28;20043;-64
2021/03/31 12:08:14;;;;;;;2.35;1.40;;;23.50;62.50;;;;;;5065519;28;20029;-65
2021/03/31 12:10:39;;;;;;;2.28;1.48;;;23.40;58.90;;;;;;5055956;28;20041;-63
2021/03/31 12:13:05;;;;;;;2.92;1.80;;;23.50;58.90;;;;;;5046123;28;20013;-64
2021/03/31 12:15:31;;;;;;;5.10;2.17;;;23.40;58.50;;;;;;5045692;28;20116;-65
2021/03/31 12:17:57;;;;;;;2.75;2.00;;;23.20;58.40;;;;;;5060155;28;20705;-64
2021/03/31 12:20:22;;;;;;;2.72;1.80;;;23.40;58.80;;;;;;5063564;28;20032;-64
2021/03/31 12:22:49;;;;;;;3.75;1.85;;;23.60;59.70;;;;;;5065166;28;20021;-64
2021/03/31 12:25:15;;;;;;;3.17;1.27;;;23.80;59.90;;;;;;5056724;28;20158;-64
2021/03/31 12:27:44;;;;;;;1.90;1.30;;;24.10;60.40;;;;;;5045028;28;20423;-63
2021/03/31 12:30:13;;;;;;;2.08;1.48;;;24.40;59.90;;;;;;5044326;28;20094;-62
2021/03/31 12:32:39;;;;;;;1.85;1.45;;;24.40;58.60;;;;;;5045638;28;20045;-63
2021/03/31 12:35:06;;;;;;;2.60;1.75;;;24.60;58.40;;;;;;5045149;28;20040;-63
2021/03/31 12:37:32;;;;;;;2.17;1.70;;;24.50;58.40;;;;;;5047934;28;20086;-62
2021/03/31 12:39:58;;;;;;;4.55;1.67;;;24.50;56.70;;;;;;5058576;28;20115;-63
2021/03/31 12:42:25;;;;;;;2.97;1.85;;;24.80;57.30;;;;;;5064428;28;20177;-63
2021/03/31 12:44:52;;;;;;;2.80;1.63;;;24.80;55.70;;;;;;5057474;28;20127;-63
2021/03/31 12:47:20;;;;;;;1.80;1.23;;;24.80;56.60;;;;;;5064885;28;20457;-63
2021/03/31 12:49:48;;;;;;;4.00;1.70;;;25.00;55.90;;;;;;5064840;28;20112;-63
2021/03/31 12:52:15;;;;;;;4.25;1.42;;;25.00;56.90;;;;;;5065200;28;20433;-63
2021/03/31 12:57:14;;;;;;;1.30;1.15;;;25.20;55.10;;;;;;5045210;28;20391;-63
2021/03/31 12:59:41;;;;;;;2.65;1.20;;;25.40;54.10;;;;;;5044449;28;20029;-61
2021/03/31 13:02:06;;;;;;;2.35;1.48;;;25.40;54.90;;;;;;5043588;28;20024;-61
2021/03/31 13:04:33;;;;;;;3.92;1.70;;;25.50;54.30;;;;;;5045041;28;20491;-61
2021/03/31 13:06:59;;;;;;;2.45;1.67;;;25.40;55.00;;;;;;5045094;28;20043;-62
2021/03/31 13:09:28;;;;;;;2.75;1.30;;;25.50;53.50;;;;;;5043417;28;20033;-62
2021/03/31 13:11:54;;;;;;;1.58;1.20;;;25.40;54.90;;;;;;5057839;28;20035;-61
2021/03/31 13:17:10;;;;;;;1.50;1.30;;;25.60;53.60;;;;;;5064823;28;20044;-61
2021/03/31 13:33:14;;;;;;;1.85;1.30;;;25.70;51.50;;;;;;5071194;28;20029;-61
2021/03/31 13:36:06;;;;;;;3.67;1.30;;;25.50;51.30;;;;;;5063737;28;20035;-61
2021/03/31 13:41:17;;;;;;;1.90;1.13;;;25.90;51.30;;;;;;5063833;28;20314;-62
2021/03/31 13:43:42;;;;;;;1.40;1.10;;;26.30;50.80;;;;;;5063850;28;20020;-61
2021/03/31 13:46:08;;;;;;;2.30;1.02;;;26.50;50.40;;;;;;5063904;28;20032;-62